Hlavní strana
METAR-TAF:

METAR-TAF

Letiště :

Bahrajn, Bahrajn

zeměpisná šířka: 26-16N, zeměpisná délka: 050-39E, výška: 2 m

Aktuální stav počasí

Zpráva byla vytvořena před 36 minutami, v 18:00 UTC
Severozápadní vítr 17 kt
Teplota 16°C
Vlhkost vzduchu 68%
Tlak 1022 hPa
Viditelnost: 6000 m
Skoro jasno ve výšce 4000 ft

METAR: OBBI 211800Z 31017KT 6000 FEW040 16/10 Q1022 NOSIG

Čas: 21:36 (18:36 UTC)

Předpověď počasí

Zpráva byla vytvořena před 1 hodinou a 36 minutami, v 17:00 UTC
Předpověď platná od 21 v 18 UTC do 23 v 00 UTC
Severozápadní vítr 15 kt
Viditelnost: 7000 m
Polojasno ve výšce 3000 ft
Změna
od 22 v 16 UTC do 22 v 18 UTC
vítr z různých směrů 5 kt
Dočasný
od 22 v 18 UTC do 23 v 00 UTC
Viditelnost: 4000 m
kouřmo

TAF: OBBI 211700Z 2118/2300 32015KT 7000 SCT030 BECMG 2216/2218 VRB05KT TEMPO 2218/2300 4000 BR

Stav a předpovědi počasí z více než 4 000 letišť (zprávy METAR a TAF).

Červené a žluté tečky na mapě představují dostupné meteorologické stanice.

Když kurzor umístíte na tečku, zobrazí se název stanice.

Pak kliknutím zobrazíte stav a předpověď počasí.

Chcete-li změnit mapu, kliknutím na zelené tlačítko se znaménkem +mapu přiblížíte, kliknutím na zelené tlačítko se znaménkem – mapu oddálíte a kliknutím na zelené šipky přejdete na sousední mapy.


METAR-TAF: